Time;durP1;ratioP1;P1;durP2;ratioP2;P2;SDS_P1;SDS_P2;PMS_P1;PMS_P2;Temp;Humidity;BMP_temperature;BMP_pressure;BME280_temperature;BME280_humidity;BME280_pressure;Samples;Min_cycle;Max_cycle;Signal;HPM_P1;HPM_P2
2022/04/23 00:02:12;;;;;;;25.25;6.25;;;;;;;8.38;100.00;149761.89;1656216;86;21022;-66
2022/04/23 00:04:40;;;;;;;26.25;6.95;;;;;;;8.35;100.00;149754.12;1655938;86;21259;-68
2022/04/23 00:07:09;;;;;;;30.57;6.55;;;;;;;8.35;100.00;149754.12;1656320;85;21012;-66
2022/04/23 00:09:37;;;;;;;22.77;5.97;;;;;;;8.33;100.00;149748.95;1655431;85;21486;-67
2022/04/23 00:12:05;;;;;;;24.95;6.80;;;;;;;8.33;100.00;149750.22;1655963;85;20940;-67
2022/04/23 00:14:33;;;;;;;22.37;6.95;;;;;;;8.33;100.00;149748.95;1656139;85;21150;-65
2022/04/23 00:17:03;;;;;;;24.55;7.30;;;;;;;8.31;100.00;149746.38;1656409;86;21525;-65
2022/04/23 00:19:30;;;;;;;20.48;6.67;;;;;;;8.30;100.00;149742.45;1656367;85;21031;-65
2022/04/23 00:21:58;;;;;;;26.23;6.28;;;;;;;8.27;100.00;149735.97;1656568;86;21060;-67
2022/04/23 00:24:26;;;;;;;27.67;8.10;;;;;;;8.26;100.00;149733.38;1656328;86;21038;-64
2022/04/23 00:26:53;;;;;;;23.10;6.15;;;;;;;8.25;100.00;149730.78;1656529;86;21107;-65
2022/04/23 00:29:22;;;;;;;22.93;6.10;;;;;;;8.23;100.00;149725.61;1655969;86;21221;-65
2022/04/23 00:31:51;;;;;;;26.97;7.47;;;;;;;8.21;100.00;149720.42;1656137;86;21032;-65
2022/04/23 00:34:19;;;;;;;19.82;5.80;;;;;;;8.21;100.00;149719.16;1656386;85;21018;-66
2022/04/23 00:36:47;;;;;;;19.95;6.60;;;;;;;8.19;100.00;149715.25;1656107;84;21122;-65
2022/04/23 00:39:14;;;;;;;28.20;6.75;;;;;;;8.20;100.00;149716.56;1656042;86;21130;-65
2022/04/23 00:41:48;;;;;;;22.15;5.92;;;;;;;8.20;100.00;149717.84;1656022;86;21261;-65
2022/04/23 00:44:15;;;;;;;22.80;6.53;;;;;;;8.21;100.00;149720.42;1656354;85;22207;-66
2022/04/23 00:46:44;;;;;;;20.75;6.62;;;;;;;8.22;100.00;149721.75;1656208;85;21289;-66
2022/04/23 00:49:15;;;;;;;22.65;6.58;;;;;;;8.21;100.00;149720.42;1655991;86;20995;-67
2022/04/23 00:51:42;;;;;;;24.60;7.45;;;;;;;8.21;100.00;149719.16;1655991;86;21317;-67
2022/04/23 00:54:11;;;;;;;26.45;7.17;;;;;;;8.21;100.00;149720.42;1656098;85;21058;-66
2022/04/23 00:56:39;;;;;;;23.05;6.45;;;;;;;8.21;100.00;149720.42;1656035;85;20983;-67
2022/04/23 00:59:09;;;;;;;18.35;6.03;;;;;;;8.23;100.00;149724.34;1655867;86;21043;-65
2022/04/23 01:01:43;;;;;;;17.48;6.15;;;;;;;8.23;100.00;149725.61;1656396;85;20991;-66
2022/04/23 01:04:12;;;;;;;19.50;6.03;;;;;;;8.24;100.00;149726.92;1656136;86;21035;-66
2022/04/23 01:06:40;;;;;;;25.55;6.47;;;;;;;8.24;100.00;149728.19;1656105;85;22037;-66
2022/04/23 01:09:08;;;;;;;19.02;6.30;;;;;;;8.25;100.00;149729.52;1655988;86;20972;-65
2022/04/23 01:11:37;;;;;;;23.95;6.08;;;;;;;8.25;100.00;149729.52;1655792;85;21121;-65
2022/04/23 01:14:05;;;;;;;23.67;7.10;;;;;;;8.25;100.00;149730.78;1656265;86;21016;-65
2022/04/23 01:16:33;;;;;;;21.30;6.10;;;;;;;8.25;100.00;149730.78;1655936;86;21079;-65
2022/04/23 01:19:00;;;;;;;26.17;6.85;;;;;;;8.25;100.00;149729.52;1656346;85;21264;-66
2022/04/23 01:21:29;;;;;;;22.70;6.25;;;;;;;8.24;100.00;149728.19;1655943;85;21118;-66
2022/04/23 01:23:58;;;;;;;22.98;6.28;;;;;;;8.24;100.00;149728.19;1656225;85;21028;-65
2022/04/23 01:26:28;;;;;;;20.37;6.20;;;;;;;8.25;100.00;149729.52;1656636;86;21868;-66
2022/04/23 01:28:57;;;;;;;21.05;6.05;;;;;;;8.24;100.00;149728.19;1656380;85;21039;-66
2022/04/23 01:31:24;;;;;;;22.45;6.30;;;;;;;8.24;100.00;149726.92;1656172;86;21304;-66
2022/04/23 01:33:52;;;;;;;15.58;5.90;;;;;;;8.25;100.00;149730.78;1656151;85;21111;-68
2022/04/23 01:36:20;;;;;;;19.42;6.08;;;;;;;8.25;100.00;149730.78;1670553;85;21040;-66
2022/04/23 01:38:49;;;;;;;19.48;5.92;;;;;;;8.26;100.00;149733.38;1677773;85;20989;-66
2022/04/23 01:41:16;;;;;;;20.43;6.20;;;;;;;8.26;100.00;149733.38;1677789;84;21091;-67
2022/04/23 01:43:44;;;;;;;19.98;5.95;;;;;;;8.27;100.00;149734.69;1677737;85;21764;-68
2022/04/23 01:46:13;;;;;;;19.70;5.60;;;;;;;8.25;100.00;149730.78;1677631;85;20976;-68
2022/04/23 01:48:40;;;;;;;22.50;5.97;;;;;;;8.24;100.00;149728.19;1677648;84;21645;-68
2022/04/23 01:51:10;;;;;;;18.67;5.12;;;;;;;8.24;100.00;149728.19;1677872;84;20949;-67
2022/04/23 01:53:52;;;;;;;18.92;5.47;;;;;;;8.23;100.00;149725.61;1692607;83;21089;-67
2022/04/23 01:56:19;;;;;;;19.02;5.92;;;;;;;8.23;100.00;149725.61;1682592;85;21300;-66
2022/04/23 01:58:46;;;;;;;21.70;5.92;;;;;;;8.24;100.00;149728.19;1682783;83;21121;-66
2022/04/23 02:01:14;;;;;;;18.50;5.75;;;;;;;8.23;100.00;149724.34;1682861;83;21062;-66
2022/04/23 02:03:41;;;;;;;16.35;5.47;;;;;;;8.24;100.00;149728.19;1682880;84;20982;-66
2022/04/23 02:06:09;;;;;;;15.53;5.00;;;;;;;8.22;100.00;149723.02;1683068;85;21382;-67
2022/04/23 02:08:37;;;;;;;20.90;5.00;;;;;;;8.22;100.00;149723.02;1682743;85;21274;-66
2022/04/23 02:11:04;;;;;;;16.82;5.62;;;;;;;8.20;100.00;149717.84;1683434;85;20966;-66
2022/04/23 02:13:34;;;;;;;19.95;5.65;;;;;;;8.20;100.00;149717.84;1682537;83;21108;-67
2022/04/23 02:16:04;;;;;;;18.00;5.50;;;;;;;8.18;100.00;149712.66;1683012;85;21057;-67
2022/04/23 02:18:33;;;;;;;20.17;5.40;;;;;;;8.17;100.00;149710.08;1682607;83;21307;-67
2022/04/23 02:21:02;;;;;;;21.05;5.03;;;;;;;8.16;100.00;149707.48;1682914;83;21432;-65
2022/04/23 02:23:31;;;;;;;17.92;5.45;;;;;;;8.16;100.00;149707.48;1682171;83;21507;-65
2022/04/23 02:25:59;;;;;;;20.50;5.62;;;;;;;8.16;100.00;149707.48;1682573;83;21152;-65
2022/04/23 02:28:27;;;;;;;21.27;5.15;;;;;;;8.15;100.00;149704.89;1681994;85;21122;-66
2022/04/23 02:30:57;;;;;;;20.17;5.10;;;;;;;8.15;100.00;149706.16;1682512;83;21731;-66
2022/04/23 02:33:26;;;;;;;17.67;5.12;;;;;;;8.15;100.00;149704.89;1681744;83;21021;-65
2022/04/23 02:35:54;;;;;;;27.67;5.87;;;;;;;8.17;100.00;149710.08;1682240;85;21030;-65
2022/04/23 02:38:21;;;;;;;25.05;5.35;;;;;;;8.18;100.00;149712.66;1683179;83;21037;-66
2022/04/23 02:40:48;;;;;;;21.48;5.70;;;;;;;8.18;100.00;149712.66;1682384;84;21164;-65
2022/04/23 02:43:17;;;;;;;18.37;4.87;;;;;;;8.19;100.00;149715.25;1681936;83;21136;-65
2022/04/23 02:45:46;;;;;;;21.95;5.78;;;;;;;8.21;100.00;149719.16;1682292;85;21392;-65
2022/04/23 02:48:13;;;;;;;17.75;5.22;;;;;;;8.21;100.00;149720.42;1682697;83;21070;-65
2022/04/23 02:50:41;;;;;;;18.87;6.62;;;;;;;8.22;100.00;149723.02;1682488;85;21076;-65
2022/04/23 02:53:08;;;;;;;22.60;5.35;;;;;;;8.24;100.00;149726.92;1683764;84;21054;-66
2022/04/23 02:55:36;;;;;;;17.05;5.05;;;;;;;8.24;100.00;149728.19;1685412;85;21080;-64
2022/04/23 02:58:09;;;;;;;15.60;5.47;;;;;;;8.26;100.00;149733.38;1685713;85;21416;-65
2022/04/23 03:00:41;;;;;;;24.85;6.60;;;;;;;8.26;100.00;149733.38;1685241;84;21414;-66
2022/04/23 03:03:10;;;;;;;17.62;4.85;;;;;;;8.25;100.00;149730.78;1685414;84;21464;-65
2022/04/23 03:05:42;;;;;;;20.85;5.58;;;;;;;8.25;100.00;149730.78;1685432;84;21109;-65
2022/04/23 03:08:10;;;;;;;16.93;5.22;;;;;;;8.24;100.00;149728.19;1685668;84;20962;-65
2022/04/23 03:10:39;;;;;;;21.82;5.25;;;;;;;8.24;100.00;149728.19;1685025;84;21072;-65
2022/04/23 03:13:10;;;;;;;24.52;6.10;;;;;;;8.24;100.00;149728.19;1684975;84;21150;-65
2022/04/23 03:15:38;;;;;;;18.23;5.95;;;;;;;8.25;100.00;149729.52;1684414;84;21076;-66
2022/04/23 03:18:11;;;;;;;20.45;4.97;;;;;;;8.26;100.00;149732.09;1684873;84;21035;-64
2022/04/23 03:20:43;;;;;;;32.20;6.03;;;;;;;8.27;100.00;149735.97;1685666;85;21073;-66
2022/04/23 03:23:12;;;;;;;22.45;5.25;;;;;;;8.30;100.00;149743.78;1685793;84;21515;-66
2022/04/23 03:25:41;;;;;;;17.95;4.90;;;;;;;8.33;100.00;149750.22;1685633;84;21462;-66
2022/04/23 03:28:10;;;;;;;16.48;5.72;;;;;;;8.34;100.00;149752.81;1684803;84;21113;-65
2022/04/23 03:30:40;;;;;;;21.30;5.08;;;;;;;8.37;100.00;149759.31;1684382;84;20982;-65
2022/04/23 03:33:09;;;;;;;21.07;5.17;;;;;;;8.40;100.00;149767.08;1684924;84;20975;-64
2022/04/23 03:35:37;;;;;;;19.77;5.65;;;;;;;8.41;100.00;149770.98;1685322;84;21522;-65
2022/04/23 03:38:06;;;;;;;21.65;5.67;;;;;;;8.44;100.00;149777.44;1685233;84;21431;-66
2022/04/23 03:40:36;;;;;;;24.75;5.72;;;;;;;8.45;100.00;149780.02;1685246;84;21021;-65
2022/04/23 03:43:03;;;;;;;20.00;5.78;;;;;;;8.48;100.00;149787.78;1685368;84;21014;-64
2022/04/23 03:45:33;;;;;;;18.32;5.65;;;;;;;8.50;100.00;149793.02;1684770;84;21090;-65
2022/04/23 03:48:01;;;;;;;22.82;5.58;;;;;;;8.52;100.00;149798.23;1685224;85;21318;-65
2022/04/23 03:50:29;;;;;;;25.68;5.55;;;;;;;8.55;100.00;149806.00;1684615;84;21527;-65
2022/04/23 03:52:58;;;;;;;17.62;5.80;;;;;;;8.58;100.00;149812.45;1684218;84;21030;-65
2022/04/23 03:55:25;;;;;;;20.00;5.62;;;;;;;8.62;100.00;149821.55;1681798;85;21133;-65
2022/04/23 03:57:54;;;;;;;19.00;5.42;;;;;;;8.62;100.00;149822.86;1682411;83;21468;-65
2022/04/23 04:00:23;;;;;;;17.82;5.25;;;;;;;8.64;100.00;149828.05;1681929;84;21539;-65
2022/04/23 04:02:53;;;;;;;18.42;5.62;;;;;;;8.64;100.00;149828.05;1682452;83;21993;-65
2022/04/23 04:05:23;;;;;;;15.98;4.62;;;;;;;8.66;100.00;149833.22;1681883;84;21065;-64
2022/04/23 04:07:50;;;;;;;29.15;5.20;;;;;;;8.68;100.00;149837.08;1682361;83;21081;-64
2022/04/23 04:10:20;;;;;;;23.73;5.15;;;;;;;8.70;100.00;149843.58;1682065;83;21073;-65
2022/04/23 04:12:49;;;;;;;17.65;5.15;;;;;;;8.73;100.00;149851.34;1682650;83;21538;-65
2022/04/23 04:15:17;;;;;;;22.60;5.85;;;;;;;8.78;100.00;149861.70;1681985;83;20948;-65
2022/04/23 04:17:47;;;;;;;20.25;5.25;;;;;;;8.79;100.00;149865.61;1682373;84;21567;-64
2022/04/23 04:20:14;;;;;;;21.73;5.12;;;;;;;8.83;100.00;149874.66;1682205;83;21087;-64
2022/04/23 04:22:43;;;;;;;24.02;5.50;;;;;;;8.86;100.00;149882.47;1682012;83;21562;-65
2022/04/23 04:25:13;;;;;;;17.17;4.60;;;;;;;8.88;100.00;149888.92;1682389;84;20931;-66
2022/04/23 04:27:41;;;;;;;19.70;5.62;;;;;;;8.89;100.00;149891.50;1682311;84;21650;-66
2022/04/23 04:30:11;;;;;;;17.67;5.15;;;;;;;8.94;100.00;149901.87;1682701;83;21334;-65
2022/04/23 04:32:41;;;;;;;20.32;5.37;;;;;;;8.97;100.00;149909.69;1682859;84;21558;-64
2022/04/23 04:35:09;;;;;;;22.02;6.55;;;;;;;9.00;100.00;149917.47;1682745;83;20974;-65
2022/04/23 04:37:37;;;;;;;18.57;6.03;;;;;;;9.03;100.00;149925.23;1682641;83;21145;-65
2022/04/23 04:40:07;;;;;;;14.13;5.12;;;;;;;9.07;100.00;149935.59;1682986;84;21002;-64
2022/04/23 04:42:36;;;;;;;16.60;5.42;;;;;;;9.12;100.00;149948.53;1683249;85;21490;-64
2022/04/23 04:45:04;;;;;;;21.35;5.55;;;;;;;9.14;100.00;149953.72;1682692;83;21019;-65
2022/04/23 04:47:33;;;;;;;24.37;5.80;;;;;;;9.17;100.00;149961.53;1682947;84;21519;-67
2022/04/23 04:50:01;;;;;;;16.60;4.78;;;;;;;9.19;100.00;149964.12;1682984;83;22794;-65
2022/04/23 04:52:29;;;;;;;12.80;5.10;;;;;;;9.21;100.00;149969.31;1682750;83;21021;-65
2022/04/23 04:54:57;;;;;;;17.60;4.50;;;;;;;9.22;100.00;149973.17;1690574;83;21538;-65
2022/04/23 04:57:24;;;;;;;19.62;4.70;;;;;;;9.23;99.90;149974.50;1690291;84;21574;-65
2022/04/23 04:59:53;;;;;;;10.95;4.30;;;;;;;9.24;99.70;149977.08;1690566;83;21040;-65
2022/04/23 05:02:20;;;;;;;16.90;4.67;;;;;;;9.26;99.49;149982.27;1689969;84;21507;-65
2022/04/23 05:04:48;;;;;;;15.43;4.47;;;;;;;9.26;99.19;149983.53;1689665;84;21539;-65
2022/04/23 05:07:15;;;;;;;15.25;5.40;;;;;;;9.30;98.76;149992.63;1689326;84;21712;-66
2022/04/23 05:09:43;;;;;;;21.85;5.00;;;;;;;9.33;98.32;150000.41;1689393;83;21930;-66
2022/04/23 05:12:11;;;;;;;13.05;4.70;;;;;;;9.36;97.90;150008.17;1689839;83;21002;-67
2022/04/23 05:14:40;;;;;;;18.25;4.90;;;;;;;9.39;97.61;150015.94;1689397;83;21068;-67
2022/04/23 05:17:08;;;;;;;22.15;4.95;;;;;;;9.45;96.88;150031.53;1690178;84;20951;-66
2022/04/23 05:19:35;;;;;;;14.05;4.25;;;;;;;9.45;95.72;150030.22;1690416;83;21097;-65
2022/04/23 05:22:04;;;;;;;20.92;5.00;;;;;;;9.44;95.40;150028.95;1690660;83;20939;-65
2022/04/23 05:24:31;;;;;;;16.97;4.67;;;;;;;9.41;95.26;150021.17;1690667;83;21073;-66
2022/04/23 05:27:00;;;;;;;16.70;5.53;;;;;;;9.41;95.17;150019.84;1690725;84;21532;-66
2022/04/23 05:29:27;;;;;;;16.48;4.87;;;;;;;9.41;94.75;150019.84;1689877;83;21172;-65
2022/04/23 05:31:55;;;;;;;18.07;4.53;;;;;;;9.42;94.84;150023.77;1689828;83;21070;-66
2022/04/23 05:34:24;;;;;;;16.10;4.60;;;;;;;9.46;94.53;150034.13;1689393;83;21554;-66
2022/04/23 05:36:52;;;;;;;15.18;4.60;;;;;;;9.51;94.57;150044.48;1690020;83;21172;-66
2022/04/23 05:39:19;;;;;;;19.23;4.67;;;;;;;9.57;94.76;150060.03;1689619;83;21170;-65
2022/04/23 05:41:46;;;;;;;14.75;4.40;;;;;;;9.64;94.52;150078.22;1690223;83;21315;-65
2022/04/23 05:44:14;;;;;;;16.75;5.53;;;;;;;9.71;94.08;150096.36;1690999;84;21010;-65
2022/04/23 05:46:41;;;;;;;24.00;5.80;;;;;;;9.77;93.54;150109.33;1690373;83;20989;-66
2022/04/23 05:49:08;;;;;;;19.10;4.55;;;;;;;9.81;93.47;150119.69;1690590;83;21018;-66
2022/04/23 05:51:37;;;;;;;20.77;5.70;;;;;;;9.85;93.27;150131.38;1690115;83;21009;-69
2022/04/23 05:54:04;;;;;;;19.02;4.90;;;;;;;9.91;93.02;150145.66;1686304;83;20954;-66
2022/04/23 05:56:32;;;;;;;19.05;5.10;;;;;;;9.96;92.80;150158.61;1682723;83;21049;-66
2022/04/23 05:59:01;;;;;;;12.18;4.28;;;;;;;10.00;92.79;150167.72;1682954;83;20951;-66
2022/04/23 06:01:28;;;;;;;18.37;5.05;;;;;;;10.04;92.51;150179.34;1682612;83;21054;-66
2022/04/23 06:03:56;;;;;;;14.70;4.90;;;;;;;10.10;91.78;150192.36;1683086;83;21889;-66
2022/04/23 06:06:24;;;;;;;19.92;5.03;;;;;;;10.12;91.37;150197.55;1682532;83;21471;-65
2022/04/23 06:08:52;;;;;;;19.17;5.65;;;;;;;10.15;91.16;150205.31;1682863;83;21459;-66
2022/04/23 06:11:20;;;;;;;19.90;5.42;;;;;;;10.20;91.27;150218.28;1682633;83;21100;-66
2022/04/23 06:13:49;;;;;;;16.60;5.80;;;;;;;10.24;91.08;150228.66;1682770;83;20990;-66
2022/04/23 06:16:17;;;;;;;19.92;5.33;;;;;;;10.25;90.99;150229.97;1682810;83;21408;-65
2022/04/23 06:18:44;;;;;;;16.25;5.33;;;;;;;10.23;90.90;150226.06;1682631;85;21264;-67
2022/04/23 06:21:11;;;;;;;13.58;5.47;;;;;;;10.22;90.67;150222.19;1683157;83;20969;-66
2022/04/23 06:23:40;;;;;;;16.00;4.62;;;;;;;10.22;90.54;150223.47;1682681;83;21665;-66
2022/04/23 06:26:07;;;;;;;14.47;5.08;;;;;;;10.26;90.32;150233.84;1683074;84;20939;-66
2022/04/23 06:28:34;;;;;;;17.77;5.50;;;;;;;10.30;90.00;150244.25;1682668;85;21278;-66
2022/04/23 06:31:03;;;;;;;15.63;5.62;;;;;;;10.36;89.73;150257.22;1683328;84;21421;-66
2022/04/23 06:33:32;;;;;;;12.18;4.85;;;;;;;10.41;89.41;150270.23;1682642;83;21239;-65
2022/04/23 06:36:00;;;;;;;18.00;5.00;;;;;;;10.49;89.20;150289.70;1683078;83;21567;-66
2022/04/23 06:38:27;;;;;;;13.93;5.22;;;;;;;10.57;88.97;150311.77;1682775;83;21105;-66
2022/04/23 06:40:55;;;;;;;16.65;5.42;;;;;;;10.66;88.57;150333.83;1683074;83;21038;-65
2022/04/23 06:43:23;;;;;;;16.20;5.25;;;;;;;10.74;88.01;150353.31;1684103;84;20978;-66
2022/04/23 06:45:52;;;;;;;15.15;5.12;;;;;;;10.80;87.79;150368.87;1682717;83;21066;-66
2022/04/23 06:48:19;;;;;;;13.35;4.85;;;;;;;10.87;87.11;150387.02;1682539;83;21407;-68
2022/04/23 06:50:47;;;;;;;19.75;4.87;;;;;;;10.87;86.73;150387.02;1682980;83;21062;-67
2022/04/23 06:53:16;;;;;;;16.52;4.83;;;;;;;10.91;87.03;150396.13;1682855;83;20999;-67
2022/04/23 06:55:43;;;;;;;13.58;4.97;;;;;;;10.95;86.48;150406.50;1685324;85;21448;-67
2022/04/23 06:58:11;;;;;;;11.60;4.85;;;;;;;10.95;86.27;150405.22;1685619;84;21465;-69
2022/04/23 07:00:41;;;;;;;14.20;4.70;;;;;;;10.88;86.13;150389.63;1685429;84;21057;-68
2022/04/23 07:03:09;;;;;;;11.28;5.00;;;;;;;10.84;86.17;150379.23;1685684;84;21498;-66
2022/04/23 07:05:36;;;;;;;17.45;5.12;;;;;;;10.77;86.32;150361.09;1685321;85;21134;-67
2022/04/23 07:08:05;;;;;;;11.55;4.97;;;;;;;10.68;86.54;150337.70;1685829;84;20919;-67
2022/04/23 07:10:34;;;;;;;16.05;5.42;;;;;;;10.63;86.86;150324.73;1685706;84;21005;-66
2022/04/23 07:13:03;;;;;;;15.32;5.12;;;;;;;10.62;87.08;150322.14;1685755;84;21495;-68
2022/04/23 07:15:30;;;;;;;14.47;4.85;;;;;;;10.62;87.23;150322.14;1685443;84;21074;-65
2022/04/23 07:17:58;;;;;;;16.50;4.87;;;;;;;10.63;87.01;150326.05;1685944;84;21712;-66
2022/04/23 07:20:27;;;;;;;10.13;5.35;;;;;;;10.69;86.83;150340.30;1684950;84;21069;-66
2022/04/23 07:25:41;;;;;;;12.53;5.00;;;;;;;10.77;86.67;150359.77;1684641;85;21092;-66
2022/04/23 07:28:10;;;;;;;14.98;5.42;;;;;;;10.78;86.45;150363.69;1685323;84;20974;-67
2022/04/23 07:30:37;;;;;;;14.33;4.87;;;;;;;10.79;86.54;150364.95;1684695;85;22131;-66
2022/04/23 07:33:05;;;;;;;19.98;5.17;;;;;;;10.79;86.54;150366.28;1685126;84;21039;-68
2022/04/23 07:38:20;;;;;;;14.83;5.12;;;;;;;10.81;86.67;150371.47;1685423;84;20987;-66
2022/04/23 07:40:50;;;;;;;15.25;5.25;;;;;;;10.82;86.41;150372.73;1685112;84;21480;-67
2022/04/23 07:43:17;;;;;;;11.28;4.60;;;;;;;10.78;86.51;150363.69;1684941;85;21807;-68
2022/04/23 07:45:46;;;;;;;13.15;4.85;;;;;;;10.78;86.45;150363.69;1684864;84;21089;-68
2022/04/23 07:48:14;;;;;;;18.10;5.50;;;;;;;10.78;86.66;150363.69;1685050;84;21079;-67
2022/04/23 07:50:43;;;;;;;20.02;5.42;;;;;;;10.79;86.76;150364.95;1684707;84;21101;-69
2022/04/23 07:53:11;;;;;;;13.32;4.60;;;;;;;10.78;86.65;150363.69;1685112;84;21025;-69
2022/04/23 07:55:40;;;;;;;17.42;5.08;;;;;;;10.76;86.82;150358.50;1689261;83;21954;-67
2022/04/23 07:58:09;;;;;;;17.50;5.17;;;;;;;10.72;86.83;150348.06;1690430;83;20955;-67
2022/04/23 08:00:38;;;;;;;14.38;5.08;;;;;;;10.69;86.94;150341.61;1690363;83;21088;-68
2022/04/23 08:03:08;;;;;;;12.00;5.17;;;;;;;10.69;87.02;150340.30;1690464;83;21011;-67
2022/04/23 08:05:37;;;;;;;14.33;4.55;;;;;;;10.72;87.16;150348.06;1689783;83;21475;-67
2022/04/23 08:08:05;;;;;;;19.65;5.70;;;;;;;10.82;86.89;150372.73;1690475;83;21302;-67
2022/04/23 08:10:34;;;;;;;14.98;5.08;;;;;;;10.93;86.55;150400.00;1690603;84;21875;-68
2022/04/23 08:13:03;;;;;;;20.20;4.97;;;;;;;11.05;86.28;150431.16;1690587;83;21498;-69
2022/04/23 08:15:30;;;;;;;19.07;4.80;;;;;;;11.20;85.88;150467.53;1690157;83;21062;-69
2022/04/23 08:17:57;;;;;;;10.72;5.03;;;;;;;11.32;84.78;150498.66;1690450;83;21072;-68
2022/04/23 08:20:26;;;;;;;12.53;4.90;;;;;;;11.39;84.29;150516.88;1690021;84;21021;-68
2022/04/23 08:23:10;;;;;;;16.70;5.30;;;;;;;11.49;84.06;150540.22;1690620;83;21089;-69
2022/04/23 08:25:34;;;;;;;15.88;5.97;;;;;;;11.58;83.49;150564.91;1689871;83;21082;-69
2022/04/23 08:30:49;;;;;;;13.98;5.75;;;;;;;11.69;82.61;150592.17;1690516;83;21044;-66
2022/04/23 08:33:17;;;;;;;17.55;4.55;;;;;;;11.74;82.45;150605.16;1690340;83;21432;-66
2022/04/23 08:35:44;;;;;;;9.08;4.53;;;;;;;11.84;81.77;150628.56;1689929;83;21049;-66
2022/04/23 08:38:11;;;;;;;15.15;4.95;;;;;;;11.92;81.43;150649.33;1690398;83;21018;-65
2022/04/23 08:40:44;;;;;;;13.28;4.80;;;;;;;12.00;80.92;150668.81;1689812;84;20946;-65
2022/04/23 08:43:11;;;;;;;12.50;4.80;;;;;;;12.01;80.05;150672.73;1690554;83;21424;-65
2022/04/23 08:45:40;;;;;;;15.70;4.78;;;;;;;12.02;79.81;150675.33;1689758;84;21519;-66
2022/04/23 08:48:09;;;;;;;15.18;5.03;;;;;;;12.06;79.47;150683.16;1690346;84;21535;-67
2022/04/23 08:50:37;;;;;;;23.42;4.58;;;;;;;12.02;79.41;150675.33;1690381;84;21084;-68
2022/04/23 08:53:10;;;;;;;17.87;4.87;;;;;;;11.97;79.61;150662.30;1690520;83;22213;-67
2022/04/23 08:55:40;;;;;;;13.28;4.53;;;;;;;11.94;79.59;150654.52;1686231;83;21096;-66
2022/04/23 08:58:07;;;;;;;16.52;4.78;;;;;;;11.89;80.01;150642.81;1685982;84;21203;-66
2022/04/23 09:00:34;;;;;;;14.65;4.33;;;;;;;11.88;80.04;150638.94;1684925;84;21057;-66
2022/04/23 09:03:02;;;;;;;21.65;5.05;;;;;;;11.87;80.24;150636.34;1685577;84;21636;-66
2022/04/23 09:05:31;;;;;;;21.60;5.55;;;;;;;11.85;80.29;150632.44;1685427;84;21113;-67
2022/04/23 09:07:59;;;;;;;22.90;4.80;;;;;;;11.87;80.50;150636.34;1685332;84;21065;-66
2022/04/23 09:10:48;;;;;;;16.17;5.03;;;;;;;11.91;80.54;150646.73;1685088;84;21148;-66
2022/04/23 09:13:30;;;;;;;13.72;4.53;;;;;;;11.92;80.24;150649.33;1685189;84;21001;-67
2022/04/23 09:24:45;;;;;;;15.80;4.65;;;;;;;11.89;80.82;150641.53;1684485;84;21578;-66
2022/04/23 09:27:12;;;;;;;17.55;4.53;;;;;;;11.94;81.23;150654.52;1684928;84;21017;-67
2022/04/23 09:29:40;;;;;;;20.50;4.97;;;;;;;11.97;81.16;150661.03;1684940;84;22144;-65
2022/04/23 09:32:19;;;;;;;18.87;4.37;;;;;;;11.98;81.01;150664.89;1685254;84;22444;-66
2022/04/23 09:34:45;;;;;;;21.37;5.05;;;;;;;11.98;80.98;150664.89;1685055;84;21133;-66
2022/04/23 09:37:12;;;;;;;18.07;4.78;;;;;;;11.96;81.12;150659.70;1685231;84;21888;-67
2022/04/23 09:39:40;;;;;;;25.40;5.62;;;;;;;11.98;81.29;150664.89;1657249;85;21077;-67
2022/04/23 09:42:16;;;;;;;23.52;5.35;;;;;;;12.03;81.29;150677.92;1685358;84;21010;-67
2022/04/23 09:44:45;;;;;;;20.37;5.00;;;;;;;12.07;81.30;150685.77;1685411;84;21077;-66
2022/04/23 09:47:31;;;;;;;16.55;4.70;;;;;;;12.09;81.17;150690.95;1685964;84;20974;-66
2022/04/23 09:50:00;;;;;;;19.15;5.20;;;;;;;12.09;81.29;150690.95;1685548;84;21078;-68
2022/04/23 09:52:29;;;;;;;18.02;4.87;;;;;;;12.13;81.46;150701.34;1685214;84;21046;-66
2022/04/23 09:54:57;;;;;;;16.77;4.72;;;;;;;12.20;81.33;150718.23;1684776;84;20986;-66
2022/04/23 09:57:25;;;;;;;22.00;4.83;;;;;;;12.20;81.15;150718.23;1682409;83;20958;-67
2022/04/23 09:59:52;;;;;;;24.23;5.37;;;;;;;12.18;81.26;150714.31;1682761;85;21134;-66
2022/04/23 10:02:20;;;;;;;20.02;4.60;;;;;;;12.18;81.45;150714.31;1682750;83;21325;-66
2022/04/23 10:04:49;;;;;;;23.38;4.92;;;;;;;12.16;81.57;150709.13;1682535;83;21053;-67
2022/04/23 10:07:17;;;;;;;20.88;4.47;;;;;;;12.16;81.55;150709.13;1682958;84;21089;-68
2022/04/23 10:09:46;;;;;;;19.75;4.80;;;;;;;12.22;81.54;150724.70;1682684;85;21138;-67
2022/04/23 10:12:19;;;;;;;27.73;6.30;;;;;;;12.29;81.41;150741.59;1683068;83;21054;-68
2022/04/23 10:14:56;;;;;;;19.37;5.03;;;;;;;12.31;80.84;150748.11;1682988;83;21049;-68
2022/04/23 10:17:25;;;;;;;24.07;5.65;;;;;;;12.29;80.88;150741.59;1682511;85;20968;-68
2022/04/23 10:19:54;;;;;;;21.12;5.10;;;;;;;12.21;80.88;150722.09;1682954;83;21317;-67
2022/04/23 10:22:52;;;;;;;20.65;5.17;;;;;;;12.10;81.25;150693.55;1683351;83;20962;-67
2022/04/23 10:25:51;;;;;;;22.15;5.45;;;;;;;12.00;81.74;150670.09;1682766;83;21693;-68
2022/04/23 10:28:20;;;;;;;26.33;5.67;;;;;;;11.93;82.02;150651.92;1682861;83;21243;-69
2022/04/23 10:30:49;;;;;;;22.13;6.03;;;;;;;11.84;82.31;150629.83;1682710;83;21054;-67
2022/04/23 10:33:28;;;;;;;18.50;5.47;;;;;;;11.82;82.61;150624.64;1676016;85;20942;-67
2022/04/23 10:36:11;;;;;;;20.82;5.03;;;;;;;11.83;83.04;150627.23;1683053;84;21074;-68
2022/04/23 10:38:38;;;;;;;23.60;5.30;;;;;;;11.88;83.06;150638.94;1682891;83;20978;-68
2022/04/23 10:41:06;;;;;;;26.05;5.25;;;;;;;11.95;82.98;150655.84;1661546;85;21479;-68
2022/04/23 10:43:35;;;;;;;22.45;4.97;;;;;;;11.96;82.68;150659.70;1682662;83;21002;-68
2022/04/23 10:46:07;;;;;;;21.17;4.58;;;;;;;11.96;82.51;150659.70;1682838;83;21482;-68
2022/04/23 10:48:37;;;;;;;20.17;5.15;;;;;;;11.95;82.61;150657.11;1683148;83;21297;-68
2022/04/23 10:51:18;;;;;;;21.62;5.90;;;;;;;11.92;82.48;150648.00;1639785;85;21117;-69
2022/04/23 10:53:48;;;;;;;23.45;5.72;;;;;;;11.90;82.63;150644.13;1683002;83;21799;-68
2022/04/23 10:56:18;;;;;;;15.55;4.50;;;;;;;11.86;82.83;150635.03;1683145;83;20985;-67
2022/04/23 10:58:46;;;;;;;27.35;5.60;;;;;;;11.84;82.97;150628.56;1682020;83;21097;-67
2022/04/23 11:01:36;;;;;;;28.95;5.45;;;;;;;11.80;83.18;150619.45;1683048;83;21105;-67
2022/04/23 11:04:09;;;;;;;22.87;5.33;;;;;;;11.72;83.37;150598.69;1682652;83;21050;-66
2022/04/23 11:12:39;;;;;;;26.62;5.60;;;;;;;11.59;83.77;150566.17;1663731;85;21888;-67
2022/04/23 11:15:16;;;;;;;22.15;4.92;;;;;;;11.53;84.22;150550.61;1683054;83;20986;-67
2022/04/23 11:17:49;;;;;;;16.12;5.00;;;;;;;11.49;84.43;150541.50;1683177;83;21148;-67
2022/04/23 11:20:30;;;;;;;20.05;5.00;;;;;;;11.45;84.62;150532.44;1682797;83;21458;-66
2022/04/23 11:23:00;;;;;;;20.40;6.08;;;;;;;11.44;84.90;150529.84;1682673;83;21049;-66
2022/04/23 11:25:30;;;;;;;22.32;4.92;;;;;;;11.47;84.99;150536.31;1682466;83;21373;-66
2022/04/23 11:28:13;;;;;;;18.62;5.78;;;;;;;11.50;84.80;150542.81;1682589;85;21077;-66
2022/04/23 11:30:40;;;;;;;23.60;5.25;;;;;;;11.50;84.81;150542.81;1682867;85;21570;-66
2022/04/23 11:33:12;;;;;;;20.60;5.33;;;;;;;11.49;85.11;150540.22;1682726;83;21842;-66
2022/04/23 11:35:42;;;;;;;21.23;4.92;;;;;;;11.52;85.20;150548.02;1682579;84;21049;-65
2022/04/23 11:38:19;;;;;;;19.32;4.75;;;;;;;11.55;84.96;150557.12;1682893;85;21120;-67
2022/04/23 11:40:47;;;;;;;18.20;4.87;;;;;;;11.56;84.77;150558.39;1682304;84;21474;-65
2022/04/23 11:43:33;;;;;;;19.98;5.37;;;;;;;11.57;84.73;150562.31;1682787;83;21433;-66
2022/04/23 11:46:07;;;;;;;21.52;5.12;;;;;;;11.61;84.63;150571.41;1682587;83;21046;-67
2022/04/23 11:48:43;;;;;;;22.65;4.87;;;;;;;11.67;84.52;150586.98;1683034;83;21072;-67
2022/04/23 11:51:13;;;;;;;22.35;5.05;;;;;;;11.71;84.06;150597.38;1682926;83;21551;-68